createdAt,value
2022-10-19T00:01:09.498Z,92.31
2022-10-19T00:03:36.765Z,93.67
2022-10-19T00:06:11.982Z,94.50
2022-10-19T00:08:38.980Z,92.42
2022-10-19T00:11:06.000Z,91.36
2022-10-19T00:13:32.721Z,93.61
2022-10-19T00:16:01.218Z,94.07
2022-10-19T00:18:28.038Z,95.54
2022-10-19T00:21:03.635Z,95.35
2022-10-19T00:23:30.524Z,96.18
2022-10-19T00:25:57.793Z,95.57
2022-10-19T00:28:25.006Z,94.66
2022-10-19T00:30:51.946Z,96.66
2022-10-19T00:33:23.540Z,97.79
2022-10-19T00:35:52.883Z,96.48
2022-10-19T00:38:21.192Z,96.83
2022-10-19T00:40:48.983Z,97.62
2022-10-19T00:43:17.950Z,97.57
2022-10-19T00:45:44.876Z,98.03
2022-10-19T00:48:15.608Z,98.22
2022-10-19T00:50:45.492Z,96.98
2022-10-19T00:53:12.376Z,97.25
2022-10-19T00:55:41.135Z,99.00
2022-10-19T00:58:08.903Z,98.01
2022-10-19T01:00:36.492Z,97.29
2022-10-19T01:03:04.633Z,98.24
2022-10-19T01:05:32.905Z,99.03
2022-10-19T01:08:01.946Z,99.50
2022-10-19T01:10:40.565Z,98.81
2022-10-19T01:13:18.591Z,98.37
2022-10-19T01:15:54.314Z,98.90
2022-10-19T01:18:27.427Z,99.36
2022-10-19T01:21:10.791Z,100.00
2022-10-19T01:24:10.058Z,99.99
2022-10-19T01:27:15.459Z,100.00
2022-10-19T01:29:57.144Z,100.00
2022-10-19T01:32:30.501Z,100.00
2022-10-19T01:35:04.666Z,99.82
2022-10-19T01:37:38.143Z,99.62
2022-10-19T01:40:10.514Z,99.67
2022-10-19T01:42:45.811Z,100.00
2022-10-19T01:45:19.026Z,100.00
2022-10-19T01:47:52.151Z,100.00
2022-10-19T01:50:24.797Z,100.00
2022-10-19T01:52:53.506Z,100.00
2022-10-19T01:55:21.755Z,100.00
2022-10-19T01:57:55.442Z,100.00
2022-10-19T02:00:25.483Z,100.00
2022-10-19T02:02:54.982Z,100.00
2022-10-19T02:05:27.948Z,100.00
2022-10-19T02:08:00.019Z,100.00
2022-10-19T02:10:29.480Z,100.00
2022-10-19T02:12:58.563Z,99.99
2022-10-19T02:15:30.225Z,100.00
2022-10-19T02:18:00.218Z,100.00
2022-10-19T02:20:28.559Z,100.00
2022-10-19T02:22:55.550Z,100.00
2022-10-19T02:25:23.231Z,100.00
2022-10-19T02:27:52.673Z,100.00
2022-10-19T02:30:20.532Z,100.00
2022-10-19T02:32:49.989Z,100.00
2022-10-19T02:35:17.299Z,100.00
2022-10-19T02:37:44.551Z,100.00
2022-10-19T02:40:12.349Z,100.00
2022-10-19T02:42:43.933Z,100.00
2022-10-19T02:45:16.753Z,100.00
2022-10-19T02:47:48.068Z,100.00
2022-10-19T02:50:18.732Z,100.00
2022-10-19T02:52:45.539Z,100.00
2022-10-19T02:55:12.384Z,100.00
2022-10-19T02:57:39.145Z,100.00
2022-10-19T03:00:08.633Z,100.00
2022-10-19T03:02:35.701Z,100.00
2022-10-19T03:05:02.527Z,99.39
2022-10-19T03:07:31.134Z,97.56
2022-10-19T03:09:58.145Z,97.02
2022-10-19T03:12:25.014Z,96.85
2022-10-19T03:14:51.845Z,97.19
2022-10-19T03:17:18.637Z,97.42
2022-10-19T03:19:46.143Z,97.99
2022-10-19T03:22:14.025Z,97.89
2022-10-19T03:24:42.287Z,96.07
2022-10-19T03:27:09.305Z,94.96
2022-10-19T03:29:36.297Z,96.73
2022-10-19T03:32:03.341Z,97.00
2022-10-19T03:34:30.308Z,97.17
2022-10-19T03:36:59.332Z,98.10
2022-10-19T03:39:26.746Z,98.44
2022-10-19T03:41:54.967Z,97.10
2022-10-19T03:44:21.815Z,97.09
2022-10-19T03:46:48.615Z,93.33
2022-10-19T03:49:15.913Z,93.37
2022-10-19T03:51:42.740Z,91.81
2022-10-19T03:54:13.772Z,89.07
2022-10-19T03:56:41.012Z,90.46
2022-10-19T03:59:14.157Z,87.74
2022-10-19T04:01:43.798Z,87.94
2022-10-19T04:04:11.669Z,88.05
2022-10-19T04:06:40.348Z,88.81
2022-10-19T04:09:08.221Z,90.59
2022-10-19T04:11:36.219Z,90.01
2022-10-19T04:14:03.860Z,91.40
2022-10-19T04:16:32.878Z,90.61
2022-10-19T04:19:00.133Z,90.07
2022-10-19T04:21:28.703Z,89.44
2022-10-19T04:23:59.017Z,88.08
2022-10-19T04:26:26.352Z,89.43
2022-10-19T04:28:53.568Z,88.84
2022-10-19T04:31:20.391Z,89.46
2022-10-19T04:33:48.619Z,90.19
2022-10-19T04:36:15.893Z,87.66
2022-10-19T04:38:42.900Z,89.01
2022-10-19T04:41:11.707Z,87.08
2022-10-19T04:43:38.995Z,88.00
2022-10-19T04:46:07.800Z,87.60
2022-10-19T04:48:35.704Z,86.21
2022-10-19T04:51:05.173Z,86.40
2022-10-19T04:53:32.468Z,87.59
2022-10-19T04:55:59.273Z,87.28
2022-10-19T04:58:27.174Z,88.11
2022-10-19T05:00:54.181Z,88.71
2022-10-19T05:03:21.043Z,89.75
2022-10-19T05:05:47.881Z,89.98
2022-10-19T05:08:16.018Z,89.13
2022-10-19T05:10:45.559Z,88.35
2022-10-19T05:13:14.648Z,87.89
2022-10-19T05:15:41.387Z,89.17
2022-10-19T05:18:08.971Z,88.76
2022-10-19T05:20:35.996Z,90.42
2022-10-19T05:23:06.423Z,90.13
2022-10-19T05:25:35.848Z,90.97
2022-10-19T05:28:05.829Z,92.62
2022-10-19T05:30:32.839Z,91.57
2022-10-19T05:32:59.619Z,92.16
2022-10-19T05:35:26.821Z,90.87
2022-10-19T05:37:54.675Z,90.58
2022-10-19T05:40:21.781Z,91.28
2022-10-19T05:42:50.070Z,91.32
2022-10-19T05:45:17.137Z,89.98
2022-10-19T05:47:43.970Z,90.45
2022-10-19T05:50:10.905Z,90.81
2022-10-19T05:52:37.651Z,89.49
2022-10-19T05:55:05.698Z,90.36
2022-10-19T05:57:33.553Z,90.00
2022-10-19T06:00:02.388Z,90.17
2022-10-19T06:02:38.564Z,89.07
2022-10-19T06:05:06.452Z,86.93
2022-10-19T06:07:33.717Z,86.39
2022-10-19T06:10:00.668Z,87.74
2022-10-19T06:12:27.477Z,86.94
2022-10-19T06:14:54.274Z,87.23
2022-10-19T06:17:22.691Z,88.16
2022-10-19T06:19:49.467Z,86.92
2022-10-19T06:22:16.376Z,87.36
2022-10-19T06:24:43.202Z,87.51
2022-10-19T06:27:09.951Z,88.26
2022-10-19T06:29:36.896Z,87.69
2022-10-19T06:32:04.142Z,88.23
2022-10-19T06:34:32.537Z,87.87
2022-10-19T06:36:59.437Z,88.13
2022-10-19T06:39:26.169Z,88.21
2022-10-19T06:41:52.969Z,88.29
2022-10-19T06:44:20.121Z,89.56
2022-10-19T06:46:47.034Z,89.77
2022-10-19T06:49:14.794Z,88.69
2022-10-19T06:51:43.086Z,89.62
2022-10-19T06:54:09.887Z,90.99
2022-10-19T06:56:36.681Z,92.07
2022-10-19T06:59:03.793Z,92.10
2022-10-19T07:01:30.934Z,91.26
2022-10-19T07:03:57.772Z,92.04
2022-10-19T07:06:26.934Z,90.68
2022-10-19T07:08:55.257Z,87.05
2022-10-19T07:11:22.746Z,86.45
2022-10-19T07:13:50.114Z,87.12
2022-10-19T07:16:21.048Z,86.76
2022-10-19T07:18:49.431Z,88.12
2022-10-19T07:21:16.734Z,88.64
2022-10-19T07:23:45.587Z,89.47
2022-10-19T07:26:16.479Z,89.23
2022-10-19T07:28:46.021Z,88.64
2022-10-19T07:31:14.141Z,88.25
2022-10-19T07:33:40.972Z,87.08
2022-10-19T07:36:10.256Z,85.76
2022-10-19T07:38:37.644Z,84.59
2022-10-19T07:41:07.012Z,84.36
2022-10-19T07:43:35.845Z,84.08
2022-10-19T07:46:04.608Z,82.95
2022-10-19T07:48:31.624Z,83.13
2022-10-19T07:51:00.628Z,82.65
2022-10-19T07:53:27.587Z,82.71
2022-10-19T07:55:54.485Z,83.68
2022-10-19T07:58:21.460Z,84.02
2022-10-19T08:00:49.642Z,85.53
2022-10-19T08:03:57.485Z,84.94
2022-10-19T08:06:05.301Z,86.10
2022-10-19T08:08:32.748Z,86.48
2022-10-19T08:11:07.403Z,86.64
2022-10-19T08:13:34.387Z,86.16
2022-10-19T08:16:03.500Z,85.54
2022-10-19T08:21:02.414Z,81.03
2022-10-19T08:23:29.117Z,81.04
2022-10-19T08:25:58.286Z,79.99
2022-10-19T08:28:25.136Z,80.59
2022-10-19T08:30:57.972Z,80.22
2022-10-19T08:33:26.624Z,79.19
2022-10-19T08:35:56.715Z,81.04
2022-10-19T08:38:23.694Z,83.43
2022-10-19T08:40:50.590Z,82.37
2022-10-19T08:43:24.204Z,82.24
2022-10-19T08:45:59.340Z,81.31
2022-10-19T08:48:30.167Z,81.14
2022-10-19T08:50:58.895Z,80.60
2022-10-19T08:53:33.603Z,81.18
2022-10-19T08:56:14.904Z,80.86
2022-10-19T08:59:00.128Z,81.04
2022-10-19T09:01:37.815Z,80.31
2022-10-19T09:04:12.598Z,81.17
2022-10-19T09:06:50.017Z,80.18
2022-10-19T09:09:19.604Z,79.84
2022-10-19T09:11:49.275Z,80.81
2022-10-19T09:14:21.309Z,80.94
2022-10-19T09:16:48.196Z,80.82
2022-10-19T09:19:23.058Z,78.71
2022-10-19T09:21:54.719Z,77.40
2022-10-19T09:24:30.105Z,75.59
2022-10-19T09:26:59.664Z,75.27
2022-10-19T09:29:33.058Z,72.28
2022-10-19T09:32:03.406Z,69.13
2022-10-19T09:34:34.837Z,63.99
2022-10-19T09:37:02.277Z,61.16
2022-10-19T09:39:30.587Z,58.43
2022-10-19T09:41:59.753Z,56.84
2022-10-19T09:44:27.620Z,54.03
2022-10-19T09:47:02.450Z,53.12
2022-10-19T09:49:42.102Z,51.70
2022-10-19T09:52:37.330Z,50.54
2022-10-19T09:55:07.630Z,47.88
2022-10-19T09:57:42.399Z,48.18
2022-10-19T10:00:18.283Z,46.59
2022-10-19T10:02:49.863Z,48.66
2022-10-19T10:05:19.464Z,47.23
2022-10-19T10:07:46.347Z,45.31
2022-10-19T10:10:21.558Z,45.78
2022-10-19T10:12:48.745Z,46.56
2022-10-19T10:15:21.165Z,47.79
2022-10-19T10:17:49.477Z,48.81
2022-10-19T10:20:23.803Z,48.17
2022-10-19T10:22:57.486Z,46.92
2022-10-19T10:25:30.530Z,46.31
2022-10-19T10:28:01.283Z,46.28
2022-10-19T10:30:34.377Z,47.40
2022-10-19T10:33:09.345Z,48.70
2022-10-19T10:35:53.659Z,48.84
2022-10-19T10:38:24.105Z,47.81
2022-10-19T10:40:52.694Z,50.89
2022-10-19T10:43:23.839Z,54.28
2022-10-19T10:45:53.248Z,55.55
2022-10-19T10:48:28.706Z,55.52
2022-10-19T10:50:57.933Z,54.32
2022-10-19T10:53:38.950Z,52.33
2022-10-19T10:56:19.625Z,54.27
2022-10-19T10:58:50.328Z,54.36
2022-10-19T11:01:22.001Z,54.96
2022-10-19T11:03:55.788Z,54.90
2022-10-19T11:06:25.937Z,56.06
2022-10-19T11:09:05.089Z,58.45
2022-10-19T11:11:36.678Z,61.88
2022-10-19T11:14:22.291Z,60.12
2022-10-19T11:16:52.799Z,60.38
2022-10-19T11:19:23.584Z,62.05
2022-10-19T11:22:00.552Z,63.02
2022-10-19T11:24:35.655Z,64.50
2022-10-19T11:27:09.052Z,65.10
2022-10-19T11:29:54.299Z,66.76
2022-10-19T11:32:33.902Z,71.07
2022-10-19T11:35:26.162Z,72.38
2022-10-19T11:38:19.422Z,71.05
2022-10-19T11:43:53.418Z,71.81
2022-10-19T11:46:25.995Z,72.12
2022-10-19T11:49:03.222Z,72.41
2022-10-19T11:51:39.607Z,72.19
2022-10-19T11:54:39.490Z,71.77
2022-10-19T11:57:12.320Z,70.52
2022-10-19T12:00:03.675Z,71.79
2022-10-19T12:03:04.976Z,73.16
2022-10-19T12:05:39.194Z,74.59
2022-10-19T12:08:21.482Z,72.52
2022-10-19T12:11:03.439Z,73.68
2022-10-19T12:13:36.542Z,72.56
2022-10-19T12:16:05.972Z,73.31
2022-10-19T12:18:36.750Z,74.38
2022-10-19T12:21:09.982Z,72.77
2022-10-19T12:23:39.251Z,74.94
2022-10-19T12:26:10.241Z,74.44
2022-10-19T12:28:40.468Z,75.16
2022-10-19T12:31:09.536Z,74.16
2022-10-19T12:33:47.371Z,74.88
2022-10-19T12:36:30.785Z,74.70
2022-10-19T12:39:07.031Z,74.97
2022-10-19T12:41:44.401Z,75.02
2022-10-19T12:44:56.226Z,75.29
2022-10-19T12:47:26.126Z,74.54
2022-10-19T12:49:55.096Z,75.58
2022-10-19T12:52:37.263Z,76.02
2022-10-19T12:55:22.941Z,75.22
2022-10-19T12:57:59.441Z,75.56
2022-10-19T13:00:28.883Z,75.33
2022-10-19T13:02:58.062Z,75.90
2022-10-19T13:05:27.840Z,75.12
2022-10-19T13:07:55.001Z,75.95
2022-10-19T13:10:24.524Z,75.92
2022-10-19T13:12:53.003Z,76.16
2022-10-19T13:15:56.193Z,75.71
2022-10-19T13:19:06.198Z,76.17
2022-10-19T13:21:51.862Z,76.05
2022-10-19T13:27:26.409Z,78.31
2022-10-19T13:29:54.661Z,79.01
2022-10-19T13:32:39.541Z,79.35
2022-10-19T13:35:29.428Z,78.35
2022-10-19T13:38:26.583Z,78.78
2022-10-19T13:41:01.425Z,76.63
2022-10-19T13:43:31.220Z,76.33
2022-10-19T13:46:06.248Z,77.34
2022-10-19T13:48:44.567Z,77.66
2022-10-19T13:51:23.124Z,77.84
2022-10-19T13:53:57.773Z,80.43
2022-10-19T13:59:32.328Z,80.05
2022-10-19T14:02:34.577Z,79.76
2022-10-19T14:05:14.867Z,80.25
2022-10-19T14:07:53.223Z,80.32
2022-10-19T14:10:28.216Z,80.78
2022-10-19T14:13:02.268Z,80.46
2022-10-19T14:15:32.202Z,80.33
2022-10-19T14:18:03.689Z,80.61
2022-10-19T14:20:36.322Z,80.50
2022-10-19T14:23:19.242Z,79.68
2022-10-19T14:25:51.697Z,80.16
2022-10-19T14:28:18.496Z,80.83
2022-10-19T14:30:55.117Z,79.34
2022-10-19T14:33:25.590Z,79.21
2022-10-19T14:35:53.540Z,79.29
2022-10-19T14:38:25.831Z,79.55
2022-10-19T14:40:52.659Z,80.18
2022-10-19T14:43:23.068Z,80.52
2022-10-19T14:46:20.014Z,80.48
2022-10-19T14:48:50.108Z,80.08
2022-10-19T14:51:28.557Z,81.05
2022-10-19T14:54:00.081Z,81.07
2022-10-19T14:56:35.033Z,81.21
2022-10-19T14:59:06.163Z,82.51
2022-10-19T15:01:34.217Z,81.99
2022-10-19T15:04:02.788Z,81.84
2022-10-19T15:06:32.624Z,81.76
2022-10-19T15:09:02.567Z,82.24
2022-10-19T15:11:31.813Z,82.21
2022-10-19T15:14:02.738Z,81.82
2022-10-19T15:16:33.216Z,82.12
2022-10-19T15:19:05.212Z,82.46
2022-10-19T15:21:33.605Z,82.80
2022-10-19T15:24:08.441Z,83.02
2022-10-19T15:26:35.424Z,81.63
2022-10-19T15:29:10.580Z,81.41
2022-10-19T15:31:37.525Z,82.44
2022-10-19T15:34:05.771Z,81.82
2022-10-19T15:36:33.126Z,81.81
2022-10-19T15:39:17.494Z,82.20
2022-10-19T15:41:49.175Z,84.10
2022-10-19T15:44:32.158Z,84.10
2022-10-19T15:47:29.345Z,84.57
2022-10-19T15:50:00.649Z,84.62
2022-10-19T15:52:29.608Z,84.23
2022-10-19T15:54:58.253Z,85.15
2022-10-19T15:57:28.968Z,86.19
2022-10-19T15:59:57.459Z,84.72
2022-10-19T16:02:27.007Z,84.79
2022-10-19T16:04:54.222Z,85.97
2022-10-19T16:07:26.837Z,85.47
2022-10-19T16:09:54.849Z,86.18
2022-10-19T16:12:21.958Z,85.42
2022-10-19T16:14:49.214Z,86.38
2022-10-19T16:17:16.386Z,85.92
2022-10-19T16:19:43.372Z,86.62
2022-10-19T16:22:10.304Z,85.94
2022-10-19T16:24:38.835Z,87.22
2022-10-19T16:27:06.824Z,86.10
2022-10-19T16:29:33.899Z,86.62
2022-10-19T16:32:01.493Z,87.78
2022-10-19T16:34:28.433Z,87.80
2022-10-19T16:36:55.238Z,87.48
2022-10-19T16:39:22.090Z,87.24
2022-10-19T16:41:50.232Z,88.07
2022-10-19T16:44:17.317Z,88.00
2022-10-19T16:46:44.034Z,87.44
2022-10-19T16:49:10.839Z,88.71
2022-10-19T16:51:38.748Z,88.21
2022-10-19T16:54:08.854Z,88.49
2022-10-19T16:56:36.824Z,88.36
2022-10-19T16:59:06.370Z,87.98
2022-10-19T17:01:35.074Z,87.83
2022-10-19T17:04:01.910Z,87.32
2022-10-19T17:06:29.117Z,87.65
2022-10-19T17:11:44.562Z,87.62
2022-10-19T17:14:13.195Z,87.26
2022-10-19T17:16:40.566Z,87.07
2022-10-19T17:19:08.691Z,86.87
2022-10-19T17:21:42.274Z,87.90
2022-10-19T17:24:17.143Z,88.82
2022-10-19T17:26:49.862Z,87.92
2022-10-19T17:29:19.040Z,88.37
2022-10-19T17:31:46.344Z,88.09
2022-10-19T17:34:13.718Z,87.27
2022-10-19T17:36:44.480Z,87.46
2022-10-19T17:39:13.527Z,87.63
2022-10-19T17:41:40.357Z,89.50
2022-10-19T17:44:07.193Z,89.17
2022-10-19T17:46:35.835Z,88.41
2022-10-19T17:49:03.175Z,89.13
2022-10-19T17:51:31.323Z,89.54
2022-10-19T17:54:00.279Z,90.30
2022-10-19T17:56:27.712Z,90.52
2022-10-19T17:58:56.239Z,89.07
2022-10-19T18:01:23.818Z,89.26
2022-10-19T18:03:52.570Z,89.20
2022-10-19T18:06:21.902Z,89.89
2022-10-19T18:08:51.272Z,90.55
2022-10-19T18:11:20.559Z,89.39
2022-10-19T18:13:48.067Z,90.17
2022-10-19T18:16:17.570Z,90.73
2022-10-19T18:18:46.571Z,90.28
2022-10-19T18:21:16.850Z,90.51
2022-10-19T18:23:43.943Z,90.42
2022-10-19T18:26:13.954Z,91.43
2022-10-19T18:28:40.858Z,91.17
2022-10-19T18:31:08.906Z,90.53
2022-10-19T18:33:36.109Z,91.90
2022-10-19T18:36:03.412Z,91.86
2022-10-19T18:38:31.804Z,92.58
2022-10-19T18:41:01.613Z,91.12
2022-10-19T18:43:28.412Z,91.20
2022-10-19T18:45:57.953Z,91.53
2022-10-19T18:48:27.038Z,91.21
2022-10-19T18:50:54.373Z,91.09
2022-10-19T18:53:21.703Z,90.83
2022-10-19T18:55:58.238Z,90.75
2022-10-19T18:58:25.607Z,91.08
2022-10-19T19:01:03.390Z,91.32
2022-10-19T19:03:30.365Z,90.87
2022-10-19T19:05:59.365Z,91.60
2022-10-19T19:08:26.288Z,90.67
2022-10-19T19:10:53.463Z,91.59
2022-10-19T19:13:22.548Z,91.72
2022-10-19T19:15:57.522Z,91.36
2022-10-19T19:18:24.378Z,91.40
2022-10-19T19:20:51.362Z,91.48
2022-10-19T19:23:18.233Z,91.40
2022-10-19T19:25:45.377Z,91.68
2022-10-19T19:28:12.222Z,92.30
2022-10-19T19:30:41.961Z,91.84
2022-10-19T19:33:09.080Z,91.12
2022-10-19T19:35:42.497Z,92.40
2022-10-19T19:38:10.015Z,92.23
2022-10-19T19:40:39.696Z,92.09
2022-10-19T19:43:06.541Z,92.47
2022-10-19T19:45:33.347Z,91.87
2022-10-19T19:48:02.697Z,92.30
2022-10-19T19:50:30.215Z,92.69
2022-10-19T19:52:58.105Z,92.89
2022-10-19T19:55:25.431Z,92.23
2022-10-19T19:57:54.564Z,92.80
2022-10-19T20:00:22.340Z,91.99
2022-10-19T20:02:52.787Z,91.79
2022-10-19T20:05:21.762Z,92.71
2022-10-19T20:07:48.908Z,92.57
2022-10-19T20:10:16.267Z,92.52
2022-10-19T20:12:43.816Z,92.04
2022-10-19T20:15:11.625Z,92.38
2022-10-19T20:17:38.955Z,91.89
2022-10-19T20:20:08.375Z,92.25
2022-10-19T20:22:36.888Z,92.85
2022-10-19T20:25:04.616Z,92.29
2022-10-19T20:27:34.702Z,92.55
2022-10-19T20:30:01.846Z,92.44
2022-10-19T20:32:29.646Z,92.51
2022-10-19T20:34:56.438Z,92.33
2022-10-19T20:37:23.714Z,92.69
2022-10-19T20:39:52.031Z,92.76
2022-10-19T20:42:19.079Z,92.69
2022-10-19T20:44:45.961Z,92.44
2022-10-19T20:47:12.793Z,92.59
2022-10-19T20:49:40.912Z,92.39
2022-10-19T20:52:07.728Z,92.94
2022-10-19T20:54:35.789Z,92.76
2022-10-19T20:57:04.127Z,93.20
2022-10-19T20:59:32.918Z,92.94
2022-10-19T21:01:59.868Z,92.81
2022-10-19T21:04:26.898Z,92.97
2022-10-19T21:06:53.697Z,93.26
2022-10-19T21:09:22.636Z,93.68
2022-10-19T21:11:50.776Z,92.92
2022-10-19T21:14:25.279Z,93.52
2022-10-19T21:16:56.528Z,93.31
2022-10-19T21:19:25.484Z,94.10
2022-10-19T21:21:55.517Z,93.41
2022-10-19T21:24:23.671Z,93.81
2022-10-19T21:29:23.630Z,93.79
2022-10-19T21:31:53.228Z,93.84
2022-10-19T21:34:20.918Z,94.19
2022-10-19T21:36:48.016Z,94.65
2022-10-19T21:39:15.186Z,94.53
2022-10-19T21:41:42.011Z,94.37
2022-10-19T21:44:08.880Z,94.05
2022-10-19T21:46:37.013Z,94.79
2022-10-19T21:49:03.802Z,94.51
2022-10-19T21:51:34.937Z,93.85
2022-10-19T21:54:02.264Z,94.93
2022-10-19T21:56:29.489Z,94.52
2022-10-19T21:58:56.464Z,95.08
2022-10-19T22:01:25.949Z,95.12
2022-10-19T22:03:57.334Z,95.46
2022-10-19T22:06:25.063Z,95.22
2022-10-19T22:08:52.679Z,95.31
2022-10-19T22:11:19.935Z,95.20
2022-10-19T22:13:46.827Z,95.21
2022-10-19T22:16:15.844Z,95.71
2022-10-19T22:18:43.304Z,95.79
2022-10-19T22:21:13.668Z,96.44
2022-10-19T22:23:42.195Z,95.73
2022-10-19T22:26:13.919Z,96.16
2022-10-19T22:28:40.793Z,96.09
2022-10-19T22:31:07.861Z,96.01
2022-10-19T22:33:35.567Z,95.82
2022-10-19T22:36:05.090Z,96.14
2022-10-19T22:38:34.738Z,95.96
2022-10-19T22:41:01.538Z,96.36
2022-10-19T22:43:28.531Z,96.36
2022-10-19T22:45:55.295Z,96.14
2022-10-19T22:48:22.033Z,96.02
2022-10-19T22:50:51.988Z,96.12
2022-10-19T22:53:18.748Z,95.86
2022-10-19T22:55:47.038Z,96.68
2022-10-19T22:58:14.120Z,96.02
2022-10-19T23:00:41.304Z,96.30
2022-10-19T23:03:08.351Z,96.78
2022-10-19T23:05:35.420Z,97.21
2022-10-19T23:08:02.134Z,97.28
2022-10-19T23:10:28.961Z,97.28
2022-10-19T23:12:57.067Z,97.04
2022-10-19T23:15:24.117Z,97.10
2022-10-19T23:17:51.017Z,97.63
2022-10-19T23:20:17.883Z,97.96
2022-10-19T23:22:45.096Z,97.77
2022-10-19T23:25:12.143Z,97.42
2022-10-19T23:27:39.277Z,97.75
2022-10-19T23:30:08.862Z,97.19
2022-10-19T23:32:35.742Z,98.09
2022-10-19T23:35:02.577Z,97.75
2022-10-19T23:37:29.454Z,97.81
2022-10-19T23:39:56.239Z,97.14
2022-10-19T23:42:23.062Z,98.00
2022-10-19T23:44:50.116Z,97.73
2022-10-19T23:47:18.519Z,97.55
2022-10-19T23:49:45.322Z,98.20
2022-10-19T23:52:12.047Z,98.08
2022-10-19T23:54:38.851Z,98.06
2022-10-19T23:57:05.800Z,98.20
2022-10-19T23:59:33.031Z,98.30
